Time;durP1;ratioP1;P1;durP2;ratioP2;P2;SDS_P1;SDS_P2;PMS_P1;PMS_P2;Temp;Humidity;BMP_temperature;BMP_pressure;BME280_temperature;BME280_humidity;BME280_pressure;Samples;Min_cycle;Max_cycle;Signal;HPM_P1;HPM_P2
2022/09/21 00:02:08;;;;;;;9.65;4.55;;;;;;;6.39;100.00;101971.16;5998684;28;20034;-68
2022/09/21 00:05:05;;;;;;;16.00;5.07;;;;;;;6.16;100.00;101964.59;5999482;28;20114;-68
2022/09/21 00:08:02;;;;;;;10.10;4.43;;;;;;;6.31;100.00;101976.03;5999784;28;20031;-68
2022/09/21 00:10:58;;;;;;;10.35;3.90;;;;;;;6.18;100.00;101965.34;5998637;28;20030;-68
2022/09/21 00:13:59;;;;;;;7.85;3.78;;;;;;;6.28;100.00;101973.56;5999831;28;20109;-68
2022/09/21 00:16:54;;;;;;;8.63;4.22;;;;;;;6.35;100.00;101985.47;6002277;28;20389;-68
2022/09/21 00:19:50;;;;;;;10.13;4.00;;;;;;;6.48;100.00;101975.91;6022607;28;20038;-68
2022/09/21 00:22:46;;;;;;;8.63;3.93;;;;;;;6.22;100.00;101974.78;6001391;28;20034;-67
2022/09/21 00:25:41;;;;;;;11.52;4.07;;;;;;;6.04;100.00;101970.53;5998804;28;20041;-67
2022/09/21 00:28:37;;;;;;;8.10;3.73;;;;;;;5.93;100.00;101976.41;5999453;28;20047;-67
2022/09/21 00:31:32;;;;;;;7.10;4.05;;;;;;;5.89;100.00;101995.97;5998304;28;20039;-67
2022/09/21 00:34:29;;;;;;;9.63;4.45;;;;;;;6.11;100.00;101997.38;5998651;28;20117;-67
2022/09/21 00:37:24;;;;;;;8.05;4.10;;;;;;;6.22;100.00;101990.59;5998803;28;20097;-67
2022/09/21 00:40:19;;;;;;;8.95;4.43;;;;;;;5.95;100.00;101992.97;5998160;28;20463;-67
2022/09/21 00:43:16;;;;;;;6.93;3.42;;;;;;;5.86;100.00;101985.59;5998969;28;20046;-67
2022/09/21 00:46:26;;;;;;;8.88;3.90;;;;;;;5.93;100.00;101986.94;5998720;28;20558;-67
2022/09/21 00:49:22;;;;;;;8.25;4.03;;;;;;;5.80;100.00;101982.41;5997793;28;20431;-67
2022/09/21 00:52:18;;;;;;;8.15;3.80;;;;;;;5.69;100.00;101992.66;5998331;28;20031;-67
2022/09/21 00:55:24;;;;;;;9.77;3.88;;;;;;;5.66;100.00;101983.16;5997776;28;20034;-67
2022/09/21 00:58:24;;;;;;;8.23;4.10;;;;;;;6.05;100.00;101974.88;5998938;28;20042;-67
2022/09/21 01:01:19;;;;;;;8.68;4.47;;;;;;;5.95;100.00;101997.41;6016486;28;20130;-67
2022/09/21 01:04:17;;;;;;;9.43;4.00;;;;;;;5.99;100.00;101999.78;5998943;28;20061;-67
2022/09/21 01:07:17;;;;;;;7.30;4.25;;;;;;;6.03;100.00;101994.34;5995904;28;20273;-67
2022/09/21 01:10:15;;;;;;;9.55;4.68;;;;;;;6.28;100.00;101984.97;6004959;28;20047;-67
2022/09/21 01:13:41;;;;;;;7.78;3.85;;;;;;;6.29;100.00;102006.88;5998529;28;20463;-67
2022/09/21 01:16:36;;;;;;;8.63;4.03;;;;;;;6.13;100.00;102016.56;5998152;28;20086;-68
2022/09/21 01:19:51;;;;;;;8.60;3.97;;;;;;;5.77;100.00;102014.16;5998612;28;20033;-68
2022/09/21 01:22:58;;;;;;;8.40;4.15;;;;;;;6.06;100.00;102015.22;5991996;28;20043;-67
2022/09/21 01:26:10;;;;;;;10.43;4.10;;;;;;;6.11;100.00;102008.78;5998680;28;20034;-67
2022/09/21 01:29:10;;;;;;;8.50;3.90;;;;;;;5.95;100.00;102008.75;5998694;28;20478;-67
2022/09/21 01:32:14;;;;;;;7.28;3.88;;;;;;;5.87;100.00;101999.59;5997189;28;20113;-67
2022/09/21 01:35:22;;;;;;;7.15;4.10;;;;;;;5.63;100.00;102003.50;5997161;28;20034;-67
2022/09/21 01:38:27;;;;;;;9.10;3.63;;;;;;;6.04;100.00;101998.66;6013287;28;20122;-67
2022/09/21 01:41:26;;;;;;;10.73;4.28;;;;;;;6.56;100.00;102000.03;5996624;28;20390;-67
2022/09/21 01:44:25;;;;;;;10.43;4.22;;;;;;;6.93;100.00;101993.47;5997599;28;20555;-67
2022/09/21 01:47:21;;;;;;;8.48;4.22;;;;;;;6.71;100.00;102007.06;6000507;28;20034;-67
2022/09/21 01:50:19;;;;;;;13.10;5.10;;;;;;;6.84;100.00;102010.69;6001789;28;20089;-67
2022/09/21 01:53:21;;;;;;;10.90;5.05;;;;;;;6.73;100.00;101999.91;6017114;28;20040;-67
2022/09/21 01:56:35;;;;;;;10.55;4.65;;;;;;;6.73;100.00;102002.53;6001728;28;20566;-67
2022/09/21 01:59:37;;;;;;;10.55;4.85;;;;;;;6.40;100.00;101993.94;6002627;28;20043;-67
2022/09/21 02:03:10;;;;;;;10.63;4.20;;;;;;;6.08;100.00;102008.09;6001764;28;20037;-67
2022/09/21 02:06:07;;;;;;;7.80;3.65;;;;;;;6.06;100.00;102002.06;5996109;28;20398;-67
2022/09/21 02:09:02;;;;;;;7.82;3.65;;;;;;;6.18;100.00;102001.38;6002632;28;20035;-67
2022/09/21 02:12:00;;;;;;;8.85;3.60;;;;;;;5.98;100.00;102008.59;6001371;28;20038;-67
2022/09/21 02:14:55;;;;;;;7.70;3.45;;;;;;;5.77;100.00;102015.00;6002287;28;20046;-67
2022/09/21 02:18:13;;;;;;;10.32;4.00;;;;;;;5.56;100.00;102024.06;6001191;28;20046;-67
2022/09/21 02:21:19;;;;;;;8.43;3.88;;;;;;;5.50;100.00;102027.00;6000444;28;20533;-67
2022/09/21 02:24:26;;;;;;;9.50;3.80;;;;;;;5.38;100.00;102032.94;6001905;28;20038;-67
2022/09/21 02:27:24;;;;;;;7.03;3.47;;;;;;;5.33;100.00;102030.53;6001723;28;20130;-67
2022/09/21 02:30:21;;;;;;;11.00;4.07;;;;;;;5.30;100.00;102024.56;6000988;28;20041;-67
2022/09/21 02:33:26;;;;;;;7.65;3.80;;;;;;;5.17;100.00;102018.25;6016250;28;20038;-67
2022/09/21 02:36:28;;;;;;;7.97;3.50;;;;;;;5.20;100.00;102025.97;6000623;28;20035;-67
2022/09/21 02:40:08;;;;;;;7.57;3.38;;;;;;;5.17;100.00;102024.38;6000274;28;20475;-67
2022/09/21 02:43:11;;;;;;;8.88;3.78;;;;;;;5.14;100.00;102026.28;5989063;28;20604;-67
2022/09/21 02:46:26;;;;;;;6.55;3.42;;;;;;;5.33;100.00;102022.63;6000389;28;20047;-67
2022/09/21 02:49:30;;;;;;;11.63;4.07;;;;;;;5.13;100.00;102020.22;6011136;28;20664;-67
2022/09/21 02:52:26;;;;;;;6.28;3.58;;;;;;;5.08;100.00;102016.13;6015654;28;20062;-67
2022/09/21 02:55:22;;;;;;;8.27;3.60;;;;;;;5.20;100.00;102024.22;6001549;28;20674;-67
2022/09/21 02:58:20;;;;;;;8.98;3.75;;;;;;;5.26;100.00;102023.03;5998748;28;20073;-67
2022/09/21 03:01:16;;;;;;;7.78;4.43;;;;;;;5.22;100.00;102030.22;5998900;28;20111;-67
2022/09/21 03:04:11;;;;;;;9.65;3.95;;;;;;;5.14;100.00;102011.38;6000787;28;20118;-67
2022/09/21 03:07:07;;;;;;;8.53;3.70;;;;;;;5.41;100.00;102011.69;6001048;28;20039;-67
2022/09/21 03:10:05;;;;;;;7.57;3.80;;;;;;;5.90;100.00;102033.63;6000124;28;20118;-67
2022/09/21 03:13:00;;;;;;;10.27;4.25;;;;;;;5.96;100.00;102018.38;6000666;28;20038;-67
2022/09/21 03:16:00;;;;;;;9.68;4.63;;;;;;;6.26;100.00;102012.31;6000643;28;20039;-67
2022/09/21 03:18:57;;;;;;;8.52;4.43;;;;;;;6.57;100.00;102028.94;6000359;28;20070;-67
2022/09/21 03:21:53;;;;;;;10.07;4.25;;;;;;;6.71;100.00;102030.78;5999944;28;20046;-67
2022/09/21 03:24:48;;;;;;;10.57;4.97;;;;;;;6.89;100.00;102029.72;6000363;28;20070;-67
2022/09/21 03:27:44;;;;;;;12.75;5.20;;;;;;;6.84;100.00;102026.50;6000827;28;20066;-67
2022/09/21 03:30:39;;;;;;;9.07;4.70;;;;;;;6.55;100.00;102027.31;5998862;28;20034;-67
2022/09/21 03:33:35;;;;;;;9.13;3.95;;;;;;;5.93;100.00;102039.59;5999814;28;20038;-67
2022/09/21 03:36:30;;;;;;;6.47;3.42;;;;;;;5.70;100.00;102028.59;6000384;28;20046;-67
2022/09/21 03:39:26;;;;;;;8.30;3.83;;;;;;;5.67;100.00;102029.59;6000121;28;20113;-67
2022/09/21 03:42:21;;;;;;;8.25;3.70;;;;;;;5.59;100.00;102042.31;6000124;28;20031;-67
2022/09/21 03:45:16;;;;;;;8.00;3.43;;;;;;;5.20;100.00;102028.63;5999052;28;20038;-67
2022/09/21 03:48:13;;;;;;;8.57;3.83;;;;;;;5.42;100.00;102047.59;5999925;28;20498;-67
2022/09/21 03:51:08;;;;;;;9.30;3.80;;;;;;;6.19;100.00;102040.81;5998832;28;20306;-67
2022/09/21 03:54:04;;;;;;;8.40;4.67;;;;;;;5.91;100.00;102028.31;5999763;28;20504;-67
2022/09/21 03:56:59;;;;;;;7.97;3.50;;;;;;;5.31;100.00;102026.28;5999880;28;20027;-66
2022/09/21 03:59:54;;;;;;;8.47;4.10;;;;;;;5.14;100.00;102050.81;5998991;28;20062;-67
2022/09/21 04:02:50;;;;;;;6.97;3.30;;;;;;;5.26;100.00;102038.81;5998516;28;20047;-67
2022/09/21 04:05:45;;;;;;;7.83;3.90;;;;;;;5.18;100.00;102030.47;5998281;28;20700;-67
2022/09/21 04:08:40;;;;;;;10.20;4.30;;;;;;;4.95;100.00;102033.41;5998639;28;20078;-66
2022/09/21 04:11:37;;;;;;;11.67;3.90;;;;;;;4.79;100.00;102042.09;5998981;28;20030;-66
2022/09/21 04:14:32;;;;;;;6.85;3.85;;;;;;;4.77;100.00;102054.44;5999248;28;20045;-66
2022/09/21 04:17:28;;;;;;;9.32;4.25;;;;;;;4.76;100.00;102039.59;5999757;28;20053;-66
2022/09/21 04:20:23;;;;;;;10.00;4.47;;;;;;;5.10;100.00;102045.78;5998414;28;20039;-67
2022/09/21 04:23:19;;;;;;;8.50;4.10;;;;;;;4.86;100.00;102039.16;5999665;28;20030;-66
2022/09/21 04:26:33;;;;;;;11.30;4.13;;;;;;;4.67;100.00;102039.22;5998894;28;20661;-66
2022/09/21 04:29:28;;;;;;;9.80;4.40;;;;;;;4.88;100.00;102050.44;5999212;28;20119;-66
2022/09/21 04:32:24;;;;;;;12.40;4.57;;;;;;;5.94;100.00;102058.88;5998653;28;20038;-66
2022/09/21 04:35:19;;;;;;;10.17;4.63;;;;;;;5.74;100.00;102057.28;5999321;28;20034;-66
2022/09/21 04:38:15;;;;;;;10.50;4.78;;;;;;;5.82;100.00;102055.06;5999388;28;20042;-66
2022/09/21 04:41:10;;;;;;;10.93;5.43;;;;;;;5.96;100.00;102052.59;6007596;28;20034;-66
2022/09/21 04:44:06;;;;;;;11.00;4.70;;;;;;;6.23;100.00;102052.00;6009634;28;20031;-66
2022/09/21 04:47:02;;;;;;;10.30;4.93;;;;;;;6.06;100.00;102041.56;6022624;28;20027;-66
2022/09/21 04:49:57;;;;;;;12.63;5.53;;;;;;;6.03;100.00;102049.63;6010977;28;20031;-66
2022/09/21 04:52:52;;;;;;;10.07;4.10;;;;;;;5.73;100.00;102041.59;5998372;28;20278;-67
2022/09/21 04:55:47;;;;;;;14.93;4.70;;;;;;;5.95;100.00;102039.53;5999022;28;20042;-67
2022/09/21 04:58:43;;;;;;;10.03;5.13;;;;;;;5.38;100.00;102051.34;5998636;28;20526;-67
2022/09/21 05:01:38;;;;;;;8.07;3.90;;;;;;;4.98;100.00;102049.88;5995522;28;20125;-67
2022/09/21 05:04:33;;;;;;;10.97;4.27;;;;;;;4.89;100.00;102075.78;5999848;28;20097;-67
2022/09/21 05:07:29;;;;;;;8.83;4.23;;;;;;;5.22;100.00;102064.41;5997315;28;20528;-67
2022/09/21 05:10:24;;;;;;;12.80;5.17;;;;;;;5.94;100.00;102061.50;6015301;28;20057;-67
2022/09/21 05:13:19;;;;;;;11.50;5.00;;;;;;;6.23;100.00;102057.25;6002734;28;20026;-67
2022/09/21 05:16:15;;;;;;;13.27;5.10;;;;;;;6.42;100.00;102071.09;5998521;28;20117;-67
2022/09/21 05:19:11;;;;;;;11.93;6.07;;;;;;;6.25;100.00;102055.41;5998211;28;20058;-67
2022/09/21 05:22:06;;;;;;;11.93;5.67;;;;;;;6.01;100.00;102064.66;6002314;28;20080;-67
2022/09/21 05:25:02;;;;;;;10.48;5.15;;;;;;;5.79;100.00;102065.78;6020319;28;20033;-66
2022/09/21 05:27:57;;;;;;;12.18;5.30;;;;;;;5.67;100.00;102076.97;6003387;28;20473;-67
2022/09/21 05:31:09;;;;;;;12.60;5.43;;;;;;;5.61;100.00;102084.31;6001835;28;20038;-67
2022/09/21 05:34:06;;;;;;;12.02;6.20;;;;;;;5.77;100.00;102085.22;6003503;28;20365;-67
2022/09/21 05:37:42;;;;;;;11.20;5.57;;;;;;;6.07;100.00;102088.88;6002692;28;20050;-66
2022/09/21 05:40:37;;;;;;;13.35;5.65;;;;;;;6.13;100.00;102080.63;5995777;28;20043;-67
2022/09/21 05:43:33;;;;;;;9.75;4.75;;;;;;;6.01;100.00;102091.00;6002574;28;20041;-67
2022/09/21 05:46:40;;;;;;;8.98;4.80;;;;;;;6.11;100.00;102081.66;6002741;28;20054;-67
2022/09/21 05:50:04;;;;;;;11.40;4.45;;;;;;;6.25;100.00;102101.00;5999277;28;20078;-67
2022/09/21 05:53:22;;;;;;;10.77;4.70;;;;;;;6.41;100.00;102098.41;6024224;28;20043;-67
2022/09/21 05:56:41;;;;;;;9.50;4.70;;;;;;;6.57;100.00;102096.63;6020719;28;20038;-66
2022/09/21 05:59:40;;;;;;;8.63;4.63;;;;;;;6.92;100.00;102107.78;6002516;28;20058;-67
2022/09/21 06:02:54;;;;;;;12.10;4.53;;;;;;;7.07;100.00;102096.31;6001978;28;20042;-67
2022/09/21 06:05:49;;;;;;;7.57;3.63;;;;;;;7.03;100.00;102100.94;6002469;28;20430;-67
2022/09/21 06:08:45;;;;;;;15.68;4.75;;;;;;;7.23;100.00;102104.22;6006197;28;20038;-67
2022/09/21 06:11:40;;;;;;;7.90;4.00;;;;;;;7.57;100.00;102102.09;6013990;28;20062;-67
2022/09/21 06:14:36;;;;;;;11.20;4.30;;;;;;;7.45;100.00;102092.28;6002472;28;20032;-67
2022/09/21 06:17:32;;;;;;;10.30;4.22;;;;;;;7.50;100.00;102110.50;6011016;28;20043;-67
2022/09/21 06:20:27;;;;;;;9.13;4.00;;;;;;;7.84;100.00;102123.34;6017271;28;20538;-67
2022/09/21 06:23:22;;;;;;;10.47;4.40;;;;;;;7.89;100.00;102123.03;6019489;28;20035;-67
2022/09/21 06:26:18;;;;;;;8.20;3.67;;;;;;;8.06;100.00;102123.72;6009750;28;20054;-67
2022/09/21 06:29:13;;;;;;;11.13;4.45;;;;;;;8.15;100.00;102117.84;6020960;28;20035;-67
2022/09/21 06:32:08;;;;;;;8.87;4.30;;;;;;;8.28;100.00;102110.91;5999647;28;20042;-67
2022/09/21 06:35:04;;;;;;;10.47;4.20;;;;;;;8.36;100.00;102123.63;6001640;28;20085;-67
2022/09/21 06:38:01;;;;;;;10.60;4.93;;;;;;;8.37;100.00;102115.56;6005894;28;20034;-67
2022/09/21 06:41:01;;;;;;;10.02;5.03;;;;;;;8.46;100.00;102124.72;6009323;28;20471;-66
2022/09/21 06:43:57;;;;;;;12.95;4.85;;;;;;;8.59;100.00;102119.53;6001658;28;20033;-66
2022/09/21 06:46:52;;;;;;;10.40;4.73;;;;;;;9.02;100.00;102133.44;6001121;28;20043;-67
2022/09/21 06:49:47;;;;;;;10.97;4.67;;;;;;;8.93;100.00;102124.31;6007173;28;20066;-67
2022/09/21 06:52:43;;;;;;;10.98;5.57;;;;;;;9.08;100.00;102125.91;6000566;28;20282;-66
2022/09/21 06:55:38;;;;;;;10.57;5.07;;;;;;;9.20;100.00;102116.31;6001086;28;20058;-66
2022/09/21 06:58:36;;;;;;;9.82;4.93;;;;;;;9.31;100.00;102127.91;6000565;28;20386;-66
2022/09/21 07:01:31;;;;;;;11.50;5.30;;;;;;;9.35;100.00;102118.78;6010735;28;20042;-66
2022/09/21 07:04:28;;;;;;;11.60;5.25;;;;;;;9.41;100.00;102115.72;6002952;28;20039;-66
2022/09/21 07:07:24;;;;;;;12.38;5.68;;;;;;;9.48;100.00;102127.59;6000787;28;20122;-66
2022/09/21 07:10:19;;;;;;;14.30;5.90;;;;;;;9.56;100.00;102121.78;6003171;28;20052;-67
2022/09/21 07:13:16;;;;;;;12.50;5.53;;;;;;;9.80;100.00;102130.69;6024845;28;20038;-66
2022/09/21 07:16:12;;;;;;;12.50;5.35;;;;;;;9.94;100.00;102119.13;6004273;28;20051;-66
2022/09/21 07:19:07;;;;;;;10.85;5.25;;;;;;;10.16;100.00;102129.97;6000137;28;20109;-66
2022/09/21 07:22:02;;;;;;;9.73;5.37;;;;;;;10.27;100.00;102127.41;5999575;28;20038;-66
2022/09/21 07:24:57;;;;;;;10.83;5.27;;;;;;;10.23;99.85;102110.00;6000837;28;20035;-66
2022/09/21 07:27:53;;;;;;;12.87;5.77;;;;;;;10.32;98.04;102129.72;6000554;28;20035;-66
2022/09/21 07:30:48;;;;;;;8.97;5.03;;;;;;;10.50;97.83;102129.22;5999707;28;20050;-67
2022/09/21 07:33:47;;;;;;;12.00;4.80;;;;;;;10.71;96.69;102132.97;6000240;28;20078;-66
2022/09/21 07:36:42;;;;;;;11.70;5.15;;;;;;;10.89;95.20;102132.59;6000184;28;20047;-66
2022/09/21 07:39:38;;;;;;;10.93;4.50;;;;;;;11.29;93.67;102126.00;6010165;28;20157;-66
2022/09/21 07:42:33;;;;;;;10.07;4.53;;;;;;;11.65;91.83;102130.31;6014795;28;20294;-66
2022/09/21 07:45:30;;;;;;;10.60;4.60;;;;;;;11.75;90.17;102132.19;5999301;28;20031;-67
2022/09/21 07:48:25;;;;;;;20.77;5.00;;;;;;;11.86;89.39;102137.50;6000107;28;20039;-66
2022/09/21 07:51:21;;;;;;;13.13;5.00;;;;;;;12.03;88.84;102136.19;5998771;28;20422;-67
2022/09/21 07:54:16;;;;;;;10.40;4.03;;;;;;;12.17;86.90;102135.97;5999952;28;20061;-67
2022/09/21 08:00:31;;;;;;;9.57;4.35;;;;;;;12.52;86.78;102130.47;5999457;28;20035;-67
2022/09/21 08:03:26;;;;;;;9.38;4.18;;;;;;;12.71;85.09;102127.16;5999930;28;20061;-67
2022/09/21 08:06:23;;;;;;;10.27;4.40;;;;;;;12.91;83.90;102139.69;6008987;28;20050;-67
2022/09/21 08:09:18;;;;;;;10.60;3.88;;;;;;;12.92;83.07;102131.56;5997356;28;20035;-67
2022/09/21 08:12:16;;;;;;;13.90;4.07;;;;;;;13.13;81.98;102140.47;6004335;28;20401;-67
2022/09/21 08:15:13;;;;;;;10.90;3.83;;;;;;;13.18;80.59;102131.28;6006387;28;20117;-67
2022/09/21 08:18:09;;;;;;;10.35;4.50;;;;;;;13.07;81.91;102130.31;6000217;28;20035;-67
2022/09/21 08:21:04;;;;;;;8.93;3.78;;;;;;;13.32;81.60;102138.94;5998867;28;20042;-67
2022/09/21 08:24:00;;;;;;;10.57;4.25;;;;;;;13.44;80.91;102138.75;5999498;28;20031;-67
2022/09/21 08:26:57;;;;;;;9.60;3.92;;;;;;;13.56;79.63;102136.88;5999231;28;20038;-67
2022/09/21 08:29:53;;;;;;;9.00;3.40;;;;;;;13.63;79.16;102132.72;5999212;28;20043;-67
2022/09/21 08:32:48;;;;;;;7.88;4.00;;;;;;;13.64;79.72;102145.06;5998149;28;20031;-67
2022/09/21 08:35:53;;;;;;;11.67;4.50;;;;;;;13.62;79.55;102141.69;5999347;28;20049;-67
2022/09/21 08:38:49;;;;;;;13.05;3.83;;;;;;;13.73;78.90;102134.47;5999298;28;20506;-67
2022/09/21 08:42:03;;;;;;;10.95;3.97;;;;;;;14.23;79.34;102139.91;5998062;28;20039;-65
2022/09/21 08:45:05;;;;;;;11.25;4.00;;;;;;;14.60;76.96;102137.50;6002098;28;20047;-68
2022/09/21 08:48:05;;;;;;;7.57;3.40;;;;;;;14.65;76.02;102135.25;5997646;28;20348;-68
2022/09/21 08:51:04;;;;;;;15.25;4.40;;;;;;;14.68;76.79;102138.50;5996958;28;20039;-68
2022/09/21 08:54:06;;;;;;;9.77;3.30;;;;;;;14.85;76.21;102129.84;5996975;28;20045;-67
2022/09/21 08:57:02;;;;;;;9.00;3.30;;;;;;;14.86;74.35;102141.38;5997673;28;20035;-67
2022/09/21 08:59:58;;;;;;;10.13;3.00;;;;;;;15.17;73.20;102140.25;5997696;28;20042;-66
2022/09/21 09:03:21;;;;;;;7.93;3.53;;;;;;;15.43;74.00;102157.41;5996796;28;20026;-66
2022/09/21 09:06:40;;;;;;;8.90;2.95;;;;;;;15.24;74.03;102153.91;5998227;28;20141;-66
2022/09/21 09:09:41;;;;;;;;;;;;;;;15.36;72.62;102150.09;5999950;28;20074;-66
2022/09/21 09:13:04;;;;;;;6.38;2.70;;;;;;;15.28;72.03;102153.47;5997331;28;19910;-66
2022/09/21 09:16:32;;;;;;;7.60;3.20;;;;;;;15.35;73.89;102148.41;5997321;28;20115;-66
2022/09/21 09:19:48;;;;;;;7.18;3.15;;;;;;;15.18;72.81;102152.63;5989135;28;20479;-66
2022/09/21 09:22:47;;;;;;;6.68;2.38;;;;;;;15.25;72.50;102151.06;5996270;28;20443;-66
2022/09/21 09:25:43;;;;;;;7.30;2.75;;;;;;;15.37;73.57;102149.97;5997010;28;20133;-66
2022/09/21 09:28:47;;;;;;;8.73;1.90;;;;;;;15.26;71.74;102143.91;5996683;28;20089;-66
2022/09/21 09:31:43;;;;;;;10.75;2.17;;;;;;;15.37;73.31;102151.78;5996124;28;20121;-66
2022/09/21 09:34:52;;;;;;;8.43;2.63;;;;;;;15.15;74.53;102146.72;5997765;28;20038;-66
2022/09/21 09:37:50;;;;;;;8.27;2.47;;;;;;;15.42;73.15;102152.19;6000746;28;20046;-66
2022/09/21 09:41:13;;;;;;;9.38;2.80;;;;;;;15.31;73.00;102150.53;6020055;28;20034;-66
2022/09/21 09:44:32;;;;;;;10.55;2.63;;;;;;;15.71;73.17;102154.88;6002072;28;20043;-68
2022/09/21 09:47:49;;;;;;;8.45;1.98;;;;;;;15.59;70.45;102153.34;5998923;28;20034;-66
2022/09/21 09:50:44;;;;;;;8.23;2.22;;;;;;;15.33;68.76;102150.38;5997219;28;20042;-66
2022/09/21 09:53:40;;;;;;;6.53;1.48;;;;;;;15.69;70.27;102140.78;5996728;28;20507;-66
2022/09/21 09:56:35;;;;;;;6.80;1.90;;;;;;;15.80;67.85;102130.78;5997926;28;20037;-66
2022/09/21 09:59:49;;;;;;;6.20;1.80;;;;;;;16.01;67.46;102130.53;6013788;28;20273;-66
2022/09/21 10:02:52;;;;;;;9.60;2.25;;;;;;;16.03;68.87;102123.25;5997094;28;20467;-66
2022/09/21 10:05:47;;;;;;;5.38;2.40;;;;;;;16.20;66.84;102130.47;5994032;28;20039;-68
2022/09/21 10:08:46;;;;;;;6.43;2.87;;;;;;;16.37;67.54;102153.78;6004713;28;20058;-67
2022/09/21 10:11:41;;;;;;;7.95;2.15;;;;;;;16.46;66.66;102142.19;6022308;28;20026;-67
2022/09/21 10:14:36;;;;;;;6.10;2.30;;;;;;;16.27;65.33;102125.38;6001848;28;20117;-68
2022/09/21 10:17:32;;;;;;;7.25;2.03;;;;;;;16.48;64.92;102140.22;6007371;28;20038;-66
2022/09/21 10:20:29;;;;;;;8.27;2.30;;;;;;;16.49;65.37;102136.56;6004556;28;20169;-67
2022/09/21 10:23:25;;;;;;;9.18;2.08;;;;;;;16.38;64.99;102134.06;6002047;28;20113;-67
2022/09/21 10:26:21;;;;;;;9.18;2.95;;;;;;;16.66;64.75;102134.91;6001118;28;20039;-68
2022/09/21 10:29:20;;;;;;;5.07;2.28;;;;;;;17.20;63.66;102142.00;6011277;28;20057;-68
2022/09/21 10:32:27;;;;;;;8.65;2.33;;;;;;;16.76;64.68;102121.47;5996539;28;20039;-65
2022/09/21 10:35:22;;;;;;;5.50;1.80;;;;;;;16.95;63.08;102130.22;6001514;28;20097;-68
2022/09/21 10:38:19;;;;;;;6.03;1.60;;;;;;;17.02;60.22;102128.59;6007583;28;20038;-68
2022/09/21 10:41:14;;;;;;;9.77;2.03;;;;;;;17.07;58.81;102120.06;6017883;28;20035;-68
2022/09/21 10:44:15;;;;;;;5.83;1.60;;;;;;;17.13;61.15;102119.47;6001978;28;20089;-68
2022/09/21 10:47:18;;;;;;;9.68;2.20;;;;;;;17.47;58.92;102123.13;6001246;28;20034;-68
2022/09/21 10:50:27;;;;;;;9.52;1.35;;;;;;;17.55;58.28;102115.16;6000631;28;20038;-68
2022/09/21 10:53:35;;;;;;;6.55;2.22;;;;;;;17.47;56.60;102120.44;6001444;28;20122;-68
2022/09/21 10:56:31;;;;;;;5.95;1.10;;;;;;;17.71;55.61;102115.28;6000719;28;20371;-68
2022/09/21 10:59:31;;;;;;;3.47;1.20;;;;;;;18.09;57.13;102127.41;6000966;28;20125;-68
2022/09/21 11:02:30;;;;;;;6.85;1.50;;;;;;;18.27;53.67;102124.63;6000291;28;20042;-68
2022/09/21 11:05:28;;;;;;;7.05;1.60;;;;;;;18.23;55.48;102120.59;6000826;28;20059;-68
2022/09/21 11:08:29;;;;;;;4.32;1.10;;;;;;;17.43;55.82;102105.66;6001093;28;20038;-69
2022/09/21 11:11:25;;;;;;;4.70;1.05;;;;;;;16.99;56.51;102125.38;5998496;28;20039;-68
2022/09/21 11:14:31;;;;;;;5.00;1.73;;;;;;;16.59;57.25;102110.56;6001778;28;20085;-68
2022/09/21 11:17:33;;;;;;;5.75;1.30;;;;;;;16.99;60.50;102111.97;5998323;28;20037;-68
2022/09/21 11:20:57;;;;;;;8.15;1.40;;;;;;;17.58;57.07;102111.34;6000166;28;20064;-68
2022/09/21 11:24:27;;;;;;;2.42;1.13;;;;;;;18.06;55.27;102113.44;6004742;28;20051;-68
2022/09/21 11:27:29;;;;;;;8.13;1.30;;;;;;;18.32;53.27;102092.75;6015650;28;20073;-68
2022/09/21 11:30:28;;;;;;;9.25;1.33;;;;;;;18.72;53.54;102111.72;5999762;28;20026;-69
2022/09/21 11:33:53;;;;;;;4.70;1.17;;;;;;;18.13;53.31;102114.47;5998934;28;20546;-68
2022/09/21 11:37:08;;;;;;;2.60;0.80;;;;;;;18.34;49.18;102098.81;5998883;28;20042;-68
2022/09/21 11:40:22;;;;;;;6.60;1.50;;;;;;;18.88;51.53;102100.16;6020063;28;20088;-68
2022/09/21 11:43:23;;;;;;;3.80;0.80;;;;;;;18.96;50.76;102108.22;6023886;28;20042;-68
2022/09/21 11:46:31;;;;;;;5.13;0.93;;;;;;;18.16;53.01;102104.25;5999908;28;20467;-68
2022/09/21 11:50:18;;;;;;;5.35;1.00;;;;;;;18.40;53.61;102095.44;6011406;28;20035;-68
2022/09/21 11:53:33;;;;;;;3.63;0.80;;;;;;;18.65;49.57;102097.25;6001924;28;20049;-68
2022/09/21 11:56:39;;;;;;;2.95;0.55;;;;;;;19.01;44.75;102079.81;6000330;28;20039;-68
2022/09/21 11:59:44;;;;;;;2.50;0.68;;;;;;;19.45;45.37;102092.97;5998345;28;20824;-68
2022/09/21 12:02:51;;;;;;;4.43;0.80;;;;;;;19.86;44.05;102075.72;6000435;28;20073;-68
2022/09/21 12:06:05;;;;;;;4.38;0.75;;;;;;;19.87;41.18;102088.16;5996311;28;20034;-66
2022/09/21 12:09:38;;;;;;;3.78;0.60;;;;;;;20.02;41.93;102080.19;5998770;28;20038;-66
2022/09/21 12:12:53;;;;;;;2.65;0.60;;;;;;;20.00;41.46;102072.28;6022568;28;20117;-66
2022/09/21 12:16:05;;;;;;;3.28;1.00;;;;;;;20.27;42.27;102064.81;6005769;28;20039;-66
2022/09/21 12:19:41;;;;;;;2.55;0.73;;;;;;;19.21;45.09;102069.59;6001451;28;20070;-69
2022/09/21 12:22:42;;;;;;;3.38;0.93;;;;;;;19.23;46.17;102064.00;5995314;28;20482;-68
2022/09/21 12:25:40;;;;;;;5.80;0.68;;;;;;;18.64;46.90;102073.22;6013605;28;20030;-68
2022/09/21 12:28:50;;;;;;;3.88;0.60;;;;;;;18.27;46.67;102084.34;5998301;28;20034;-68
2022/09/21 12:31:45;;;;;;;3.05;0.60;;;;;;;17.99;48.95;102077.53;5994708;28;20156;-68
2022/09/21 12:35:02;;;;;;;5.97;1.10;;;;;;;17.76;51.75;102075.38;5998453;28;20565;-68
2022/09/21 12:38:15;;;;;;;4.63;0.90;;;;;;;17.66;50.36;102069.31;6020992;28;20035;-68
2022/09/21 12:41:25;;;;;;;3.03;0.80;;;;;;;17.39;51.91;102061.38;5995817;28;20037;-68
2022/09/21 12:44:51;;;;;;;4.97;1.70;;;;;;;17.46;53.28;102073.16;5999124;28;20030;-68
2022/09/21 12:47:55;;;;;;;3.50;0.80;;;;;;;17.23;54.34;102071.97;5999208;28;20041;-67
2022/09/21 12:50:55;;;;;;;5.63;0.82;;;;;;;17.25;53.55;102062.78;5997096;28;20042;-68
2022/09/21 12:53:52;;;;;;;5.90;1.02;;;;;;;17.16;54.94;102068.22;5998512;28;20074;-68
2022/09/21 12:56:58;;;;;;;4.28;0.90;;;;;;;16.84;56.76;102068.81;6013241;28;20031;-68
2022/09/21 13:00:03;;;;;;;5.63;0.90;;;;;;;16.37;58.73;102065.44;5985246;28;20101;-67
2022/09/21 13:03:11;;;;;;;2.60;0.73;;;;;;;16.06;57.83;102050.69;5997596;28;20035;-68
2022/09/21 13:06:26;;;;;;;3.38;0.70;;;;;;;16.01;59.73;102055.63;6006252;28;20444;-67
2022/09/21 13:09:22;;;;;;;3.10;1.10;;;;;;;15.96;58.28;102041.84;6021152;28;20042;-68
2022/09/21 13:12:23;;;;;;;3.40;0.75;;;;;;;15.81;59.43;102046.00;6014209;28;20034;-68
2022/09/21 13:15:25;;;;;;;4.07;0.77;;;;;;;15.62;59.50;102044.25;6018005;28;20042;-68
2022/09/21 13:18:24;;;;;;;5.50;0.82;;;;;;;15.58;60.03;102042.00;6002264;28;20043;-68
2022/09/21 13:21:25;;;;;;;3.22;0.90;;;;;;;15.64;60.49;102036.06;5998940;28;20119;-68
2022/09/21 13:24:29;;;;;;;5.68;1.15;;;;;;;15.61;58.07;102047.06;5987444;28;20493;-67
2022/09/21 13:28:00;;;;;;;3.53;0.60;;;;;;;15.91;58.49;102036.09;5997716;28;20386;-68
2022/09/21 13:31:04;;;;;;;3.40;0.63;;;;;;;15.96;58.16;102044.53;6007443;28;20456;-68
2022/09/21 13:34:18;;;;;;;2.88;0.52;;;;;;;16.24;57.57;102048.88;5998808;28;20146;-68
2022/09/21 13:37:24;;;;;;;3.20;0.80;;;;;;;16.14;56.22;102034.72;6000382;28;20026;-68
2022/09/21 13:40:24;;;;;;;3.40;0.80;;;;;;;16.51;56.95;102042.66;6021696;28;20850;-67
2022/09/21 13:43:22;;;;;;;3.03;0.77;;;;;;;16.91;56.07;102032.34;6026098;28;20068;-68
2022/09/21 13:46:37;;;;;;;1.67;0.63;;;;;;;17.03;55.15;102028.44;6015337;28;20049;-67
2022/09/21 13:49:53;;;;;;;1.95;0.50;;;;;;;16.90;52.13;102032.50;6002317;28;20041;-67
2022/09/21 13:52:51;;;;;;;3.90;0.90;;;;;;;16.60;53.27;102025.72;6007062;28;20042;-67
2022/09/21 13:55:53;;;;;;;6.32;0.70;;;;;;;16.46;51.96;102018.16;6019873;28;20030;-67
2022/09/21 13:58:51;;;;;;;2.35;0.40;;;;;;;16.58;52.68;102014.28;6010507;28;20090;-68
2022/09/21 14:01:47;;;;;;;5.18;0.70;;;;;;;16.72;54.15;102034.34;6000441;28;20030;-68
2022/09/21 14:04:46;;;;;;;3.53;1.33;;;;;;;16.87;53.25;102012.22;6011465;28;20065;-68